• Join FlightAware (Why Join?)
  • Login
  • US Flag 
09:16AM EDT


 

Airport Tracker/Info


-or-


 

Live Flight TrackerFlight Track Log ✈ FSR411 ✈ 13-Apr-2014 ✈ KCMI - KMDW

Flight Track Log - Related Links

Times and Time Zones

All times are in EDT time to prevent confusion due to time zone crossing. See the FSR411 flight status page for this flight to view local times or setup timezone preferences in your user account.

Time Position Orientation Groundspeed Altitude Reporting Facility
EDT Latitude Longitude Course Direction KTS MPH feet Rate Location/Type
09:26AM 40.0572 -88.3400 353° North 269 310 4,400  Level Chicago Center
09:27AM 40.1297 -88.3417 359° North 272 313 8,000 2,460 Climbing Chicago Center
09:28AM 40.2117 -88.3556 353° North 289 333 9,500 1,260 Climbing Chicago Center
09:29AM 40.3206 -88.3697 354° North 323 372 10,600 780 Climbing Chicago Center
09:30AM 40.4142 -88.3831 354° North 333 383 11,100 240 Climbing Chicago Center
09:31AM 40.5111 -88.3576 353° North  Level FlightAware Approximate
09:31AM 40.5022 -88.3933 355° North 323 372 11,100  Level Chicago Center
09:32AM 40.5858 -88.4044 354° North 307 353 11,100  Level Chicago Center
09:33AM 40.6725 -88.4164 354° North 308 354 11,100  Level Chicago Center
09:34AM 40.7592 -88.4269 355° North 310 357 11,100 -240 Level Chicago Center
09:35AM 40.8456 -88.4383 354° North 311 358 10,700 -840 Descending Chicago Center
09:36AM 40.9303 -88.4492 354° North 310 357 9,500 -1,320 Descending Chicago Center
09:37AM 41.0189 -88.4631 353° North 279 321 8,100 -780 Descending Chicago Center
09:38AM 41.0889 -88.4897 344° North 264 304 8,000 -60 Descending Chicago Center
09:39AM 41.1683 -88.5206 344° North 273 314 8,000  Level Chicago Center
09:40AM 41.2417 -88.5481 344° North 274 315 8,000 -60 Level Chicago Center
09:41AM 41.3142 -88.5761 344° North 274 315 7,900 -540 Descending Chicago Center
09:42AM 41.3853 -88.5817 357° North 273 314 6,900 -960 Descending Chicago Center
09:43AM 41.4025 -88.4739 78° East 287 330 6,000 -480 Descending Chicago Center
09:44AM 41.4436 -88.3886 57° Northeast 273 314 6,000  Level Chicago Center
09:45AM 41.4939 -88.3108 49° Northeast 275 316 6,000 -300 Level Chicago Center
09:46AM 41.5406 -88.2150 57° Northeast 284 327 5,400 -960 Descending Chicago Center
09:47AM 41.5822 -88.1261 58° Northeast 286 329 4,100 -720 Descending Chicago Center
09:48AM 41.6214 -88.0406 58° Northeast 273 314 4,000 -60 Descending Chicago Center
09:50AM 41.6603 -87.9553 59° Northeast 270 311 4,000  Level Chicago Center
09:51AM 41.6972 -87.8753 58° Northeast 239 275 4,000  Level Chicago Center
09:52AM 41.7317 -87.7986 59° Northeast 239 275 4,000  Level Chicago Center
09:53AM 41.7572 -87.7186 67° East 237 273 4,000 -240 Level Chicago Center
09:54AM 41.7594 -87.6297 88° East 237 273 3,600 -540 Descending Chicago Center
09:55AM 41.7622 -87.5331 88° East 239 275 3,000 -300 Descending Chicago Center
09:56AM 41.8036 -87.5017 29° Northeast 195 224 3,000  Level Chicago Center
09:57AM 41.8486 -87.5239 340° North 188 216 3,000 -300 Level Chicago Center
09:58AM 41.8486 -87.5819 270° West 160 184 2,500 -300 Descending Chicago Center
09:59AM 41.8453 -87.6375 265° West 139 160 2,400 -300 Descending Chicago Center
10:00AM 41.8300 -87.6811 245° Southwest 131 151 1,900 -600 Descending Chicago Center
10:01AM 41.8122 -87.7228 240° Southwest 129 148 1,200 -600 Descending Chicago Center
10:02AM 41.7872 -87.7536 223° Southwest 120 138 700 -540 Descending Chicago Center